Fecha, hora, temperatura, viento dirección y velocidad, humedad y presión.

  • 19-03-2019 23:00:00 | 0.80°C | Oeste |4.00 km/h | 56.00% | 0.00 hPa
  • 19-03-2019 22:00:00 | 1.10°C | Oeste |3.00 km/h | 62.00% | 0.00 hPa
  • 19-03-2019 21:00:00 | 2.60°C | Noroeste |5.00 km/h | 56.00% | 0.00 hPa
  • 19-03-2019 20:00:00 | 3.30°C | Noroeste |7.00 km/h | 54.00% | 0.00 hPa
  • 19-03-2019 19:00:00 | 3.90°C | Noroeste |10.00 km/h | 51.00% | 0.00 hPa
  • 19-03-2019 18:00:00 | 5.40°C | Noroeste |9.00 km/h | 49.00% | 0.00 hPa
  • 19-03-2019 17:00:00 | 5.70°C | Noroeste |11.00 km/h | 48.00% | 0.00 hPa
  • 19-03-2019 16:00:00 | 7.70°C | Noroeste |12.00 km/h | 43.00% | 0.00 hPa
  • 19-03-2019 15:00:00 | 9.60°C | Norte |7.00 km/h | 40.00% | 0.00 hPa
  • 19-03-2019 14:00:00 | 9.20°C | Norte |6.00 km/h | 37.00% | 0.00 hPa
  • 19-03-2019 13:00:00 | 8.50°C | Norte |8.00 km/h | 40.00% | 0.00 hPa
  • 19-03-2019 12:00:00 | 7.20°C | Norte |7.00 km/h | 47.00% | 0.00 hPa
  • 19-03-2019 11:00:00 | 6.60°C | Norte |9.00 km/h | 46.00% | 0.00 hPa
  • 19-03-2019 10:00:00 | 5.70°C | Norte |9.00 km/h | 48.00% | 0.00 hPa
  • 19-03-2019 09:00:00 | 4.10°C | Norte |8.00 km/h | 58.00% | 0.00 hPa
  • 19-03-2019 08:00:00 | 1.50°C | Calma |0.00 km/h | 81.00% | 0.00 hPa
  • 19-03-2019 07:00:00 | 1.90°C | Calma |0.00 km/h | 75.00% | 0.00 hPa
  • 19-03-2019 06:00:00 | 2.30°C | Noroeste |2.00 km/h | 68.00% | 0.00 hPa
  • 19-03-2019 05:00:00 | 1.70°C | Calma |0.00 km/h | 69.00% | 0.00 hPa
  • 19-03-2019 04:00:00 | 1.20°C | Calma |0.00 km/h | 67.00% | 0.00 hPa
  • 19-03-2019 03:00:00 | 1.10°C | Noroeste |2.00 km/h | 63.00% | 0.00 hPa
  • 19-03-2019 02:00:00 | 0.30°C | Calma |0.00 km/h | 62.00% | 0.00 hPa
  • 19-03-2019 01:00:00 | 1.10°C | Calma |0.00 km/h | 59.00% | 0.00 hPa
  • 19-03-2019 00:00:00 | 2.10°C | Noroeste |3.00 km/h | 48.00% | 0.00 hPa
    • diseño web asturias Información sobre el estado de las mareas, altura de la marejada, temperatura del agua y otros datos de Gijón en Asturias.

      Surf Gijón